createdAt,value
2019-01-03T00:28:35.926Z,-0.06
2019-01-03T00:28:36.013Z,-0.06
2019-01-03T00:28:36.039Z,0.02
2019-01-03T00:28:36.046Z,-0.06
2019-01-03T00:28:36.049Z,-0.08
2019-01-03T00:28:36.055Z,0.02
2019-01-03T00:28:36.270Z,0.06
2019-01-03T00:28:36.868Z,0.03
2019-01-03T00:29:30.349Z,0.05
2019-01-03T00:29:30.925Z,0.06
2019-01-03T00:29:31.522Z,0.00
2019-01-03T00:29:32.121Z,0.00
2019-01-03T00:29:32.724Z,0.00
2019-01-03T00:29:33.321Z,0.02
2019-01-03T00:29:33.919Z,0.00
2019-01-03T00:29:34.519Z,0.06
2019-01-03T00:30:29.024Z,0.05
2019-01-03T00:30:29.597Z,0.02
2019-01-03T00:30:30.197Z,0.06
2019-01-03T00:30:30.797Z,0.03
2019-01-03T00:30:31.399Z,0.03
2019-01-03T00:30:31.996Z,0.10
2019-01-03T00:30:32.596Z,0.13
2019-01-03T00:30:33.196Z,0.06
2019-01-03T00:31:27.703Z,0.06
2019-01-03T00:31:28.274Z,0.18
2019-01-03T00:31:28.872Z,0.06
2019-01-03T00:31:29.474Z,0.00
2019-01-03T00:31:30.073Z,0.03
2019-01-03T00:31:30.673Z,-0.01
2019-01-03T00:31:31.290Z,0.13
2019-01-03T00:31:31.873Z,-0.01
2019-01-03T00:32:25.353Z,0.03
2019-01-03T00:32:25.926Z,0.13
2019-01-03T00:32:26.526Z,0.05
2019-01-03T00:32:27.126Z,0.06
2019-01-03T00:32:27.726Z,0.13
2019-01-03T00:32:28.326Z,0.06
2019-01-03T00:32:28.927Z,0.05
2019-01-03T00:32:29.523Z,0.16
2019-01-03T00:33:23.006Z,0.10
2019-01-03T00:33:23.579Z,0.12
2019-01-03T00:33:24.178Z,0.05
2019-01-03T00:33:24.784Z,0.12
2019-01-03T00:33:25.379Z,0.09
2019-01-03T00:33:25.978Z,0.06
2019-01-03T00:33:26.580Z,0.10
2019-01-03T00:33:27.178Z,0.15
2019-01-03T00:34:20.661Z,0.13
2019-01-03T00:34:21.232Z,0.10
2019-01-03T00:34:21.835Z,0.18
2019-01-03T00:34:22.430Z,0.18
2019-01-03T00:34:23.030Z,0.12
2019-01-03T00:34:23.631Z,0.09
2019-01-03T00:34:24.268Z,0.12
2019-01-03T00:34:24.829Z,0.10
2019-01-03T00:35:19.331Z,0.05
2019-01-03T00:35:19.907Z,0.13
2019-01-03T00:35:20.509Z,0.10
2019-01-03T00:35:21.105Z,0.10
2019-01-03T00:35:21.706Z,0.13
2019-01-03T00:35:22.306Z,0.15
2019-01-03T00:35:22.903Z,0.10
2019-01-03T00:35:23.505Z,0.13
2019-01-03T00:36:18.009Z,0.15
2019-01-03T00:36:18.582Z,0.10
2019-01-03T00:36:19.183Z,0.16
2019-01-03T00:36:19.782Z,0.13
2019-01-03T00:36:20.381Z,0.15
2019-01-03T00:36:20.982Z,0.12
2019-01-03T00:36:21.581Z,0.15
2019-01-03T00:36:22.183Z,0.12
2019-01-03T00:37:16.684Z,0.13
2019-01-03T00:37:17.298Z,0.13
2019-01-03T00:37:17.859Z,0.13
2019-01-03T00:37:18.460Z,0.13
2019-01-03T00:37:19.057Z,0.23
2019-01-03T00:37:19.656Z,0.16
2019-01-03T00:37:20.262Z,0.21
2019-01-03T00:37:20.856Z,0.21
2019-01-03T00:38:15.361Z,0.21
2019-01-03T00:38:15.934Z,0.23
2019-01-03T00:38:16.535Z,0.12
2019-01-03T00:38:17.133Z,0.16
2019-01-03T00:38:17.733Z,0.12
2019-01-03T00:38:18.334Z,0.12
2019-01-03T00:38:18.933Z,0.25
2019-01-03T00:38:19.533Z,0.23
2019-01-03T00:39:13.013Z,0.15
2019-01-03T00:39:13.587Z,0.18
2019-01-03T00:39:14.189Z,0.18
2019-01-03T00:39:14.786Z,0.16
2019-01-03T00:39:15.386Z,0.16
2019-01-03T00:39:15.986Z,0.27
2019-01-03T00:39:16.584Z,0.21
2019-01-03T00:39:17.186Z,0.24
2019-01-03T00:40:10.664Z,0.18
2019-01-03T00:40:11.240Z,0.23
2019-01-03T00:40:11.838Z,0.24
2019-01-03T00:40:12.439Z,0.21
2019-01-03T00:40:13.040Z,0.18
2019-01-03T00:40:13.637Z,0.20
2019-01-03T00:40:14.237Z,0.27
2019-01-03T00:40:14.842Z,0.28
2019-01-03T00:41:08.316Z,0.20
2019-01-03T00:41:08.890Z,0.25
2019-01-03T00:41:09.490Z,0.28
2019-01-03T00:41:10.091Z,0.15
2019-01-03T00:41:10.689Z,0.15
2019-01-03T00:41:11.288Z,0.20
2019-01-03T00:41:11.890Z,0.18
2019-01-03T00:41:12.491Z,0.21
2019-01-03T00:42:06.992Z,0.16
2019-01-03T00:42:07.566Z,0.18
2019-01-03T00:42:08.164Z,0.16
2019-01-03T00:42:08.765Z,0.18
2019-01-03T00:42:09.365Z,0.18
2019-01-03T00:42:09.968Z,0.20
2019-01-03T00:42:10.563Z,0.18
2019-01-03T00:42:11.169Z,0.25
2019-01-03T00:43:05.674Z,0.18
2019-01-03T00:43:06.243Z,0.18
2019-01-03T00:43:06.846Z,0.12
2019-01-03T00:43:07.443Z,0.21
2019-01-03T00:43:08.042Z,0.13
2019-01-03T00:43:08.642Z,0.20
2019-01-03T00:43:09.242Z,0.23
2019-01-03T00:43:09.841Z,0.15
2019-01-03T00:44:03.320Z,0.15
2019-01-03T00:44:03.894Z,0.12
2019-01-03T00:44:04.497Z,0.13
2019-01-03T00:44:05.093Z,0.20
2019-01-03T00:44:05.693Z,0.16
2019-01-03T00:44:06.295Z,0.18
2019-01-03T00:44:06.892Z,0.15
2019-01-03T00:44:07.492Z,0.16
2019-01-03T00:45:02.060Z,0.21
2019-01-03T00:45:02.569Z,0.18
2019-01-03T00:45:03.169Z,0.23
2019-01-03T00:45:03.769Z,0.18
2019-01-03T00:45:04.368Z,0.24
2019-01-03T00:45:04.968Z,0.15
2019-01-03T00:45:05.567Z,0.18
2019-01-03T00:45:06.168Z,0.15
2019-01-03T00:46:00.672Z,0.16
2019-01-03T00:46:01.246Z,0.16
2019-01-03T00:46:01.845Z,0.13
2019-01-03T00:46:02.444Z,0.18
2019-01-03T00:46:03.044Z,0.18
2019-01-03T00:46:03.644Z,0.16
2019-01-03T00:46:04.242Z,0.21
2019-01-03T00:46:04.846Z,0.20
2019-01-03T00:46:59.346Z,0.20
2019-01-03T00:46:59.920Z,0.27
2019-01-03T00:47:00.520Z,0.20
2019-01-03T00:47:01.119Z,0.21
2019-01-03T00:47:01.720Z,0.21
2019-01-03T00:47:02.320Z,0.27
2019-01-03T00:47:02.922Z,0.16
2019-01-03T00:47:03.520Z,0.20
2019-01-03T00:47:58.026Z,0.28
2019-01-03T00:47:58.597Z,0.24
2019-01-03T00:47:59.195Z,0.25
2019-01-03T00:47:59.796Z,0.28
2019-01-03T00:48:00.395Z,0.27
2019-01-03T00:48:00.996Z,0.27
2019-01-03T00:48:01.595Z,0.36
2019-01-03T00:48:02.196Z,0.24
2019-01-03T00:48:56.698Z,0.34
2019-01-03T00:48:57.271Z,0.41
2019-01-03T00:48:57.871Z,0.30
2019-01-03T00:48:58.472Z,0.33
2019-01-03T00:48:59.071Z,0.38
2019-01-03T00:48:59.670Z,0.41
2019-01-03T00:49:00.274Z,0.39
2019-01-03T00:49:00.871Z,0.38
2019-01-03T00:49:54.351Z,0.39
2019-01-03T00:49:54.928Z,0.46
2019-01-03T00:49:55.524Z,0.42
2019-01-03T00:49:56.124Z,0.45
2019-01-03T00:49:56.723Z,0.39
2019-01-03T00:49:57.325Z,0.41
2019-01-03T00:49:57.923Z,0.43
2019-01-03T00:49:58.523Z,0.42
2019-01-03T00:50:52.004Z,0.49
2019-01-03T00:50:52.575Z,0.48
2019-01-03T00:50:53.174Z,0.46
2019-01-03T00:50:53.775Z,0.45
2019-01-03T00:50:54.375Z,0.45
2019-01-03T00:50:54.976Z,0.46
2019-01-03T00:50:55.575Z,0.39
2019-01-03T00:50:56.179Z,0.42
2019-01-03T00:51:49.654Z,0.60
2019-01-03T00:51:50.228Z,0.65
2019-01-03T00:51:50.827Z,0.57
2019-01-03T00:51:51.427Z,0.60
2019-01-03T00:51:52.027Z,0.64
2019-01-03T00:51:52.628Z,0.60
2019-01-03T00:51:53.228Z,0.57
2019-01-03T00:51:53.826Z,0.60
2019-01-03T00:52:48.329Z,0.68
2019-01-03T00:52:48.903Z,0.76
2019-01-03T00:52:49.502Z,0.64
2019-01-03T00:52:50.103Z,0.65
2019-01-03T00:52:50.702Z,0.67
2019-01-03T00:52:51.303Z,0.65
2019-01-03T00:52:51.901Z,0.71
2019-01-03T00:52:52.510Z,0.75
2019-01-03T00:53:45.985Z,0.72
2019-01-03T00:53:46.558Z,0.79
2019-01-03T00:53:47.156Z,0.79
2019-01-03T00:53:47.757Z,0.80
2019-01-03T00:53:48.357Z,0.79
2019-01-03T00:53:48.957Z,0.78
2019-01-03T00:53:49.556Z,0.75
2019-01-03T00:53:50.157Z,0.80
2019-01-03T00:54:44.657Z,0.76
2019-01-03T00:54:45.229Z,0.86
2019-01-03T00:54:45.830Z,0.83
2019-01-03T00:54:46.432Z,0.85
2019-01-03T00:54:47.029Z,0.72
2019-01-03T00:54:47.629Z,0.75
2019-01-03T00:54:48.229Z,0.78
2019-01-03T00:54:48.829Z,0.83
2019-01-03T00:55:42.311Z,0.89
2019-01-03T00:55:42.882Z,0.92
2019-01-03T00:55:43.483Z,0.82
2019-01-03T00:55:44.082Z,0.96
2019-01-03T00:55:44.682Z,0.86
2019-01-03T00:55:45.282Z,0.94
2019-01-03T00:55:45.882Z,0.92
2019-01-03T00:55:46.480Z,0.94
2019-01-03T00:56:39.963Z,1.01
2019-01-03T00:56:40.535Z,1.07
2019-01-03T00:56:41.134Z,0.97
2019-01-03T00:56:41.734Z,1.03
2019-01-03T00:56:42.333Z,1.03
2019-01-03T00:56:42.934Z,0.98
2019-01-03T00:56:43.533Z,1.00
2019-01-03T00:56:44.132Z,1.00
2019-01-03T00:57:37.613Z,1.07
2019-01-03T00:57:38.186Z,1.12
2019-01-03T00:57:38.785Z,1.10
2019-01-03T00:57:39.384Z,1.15
2019-01-03T00:57:39.984Z,1.08
2019-01-03T00:57:40.612Z,1.15
2019-01-03T00:57:41.184Z,1.10
2019-01-03T00:57:41.784Z,1.07
2019-01-03T00:58:35.266Z,1.25
2019-01-03T00:58:35.838Z,1.32
2019-01-03T00:58:36.437Z,1.29
2019-01-03T00:58:37.037Z,1.28
2019-01-03T00:58:37.651Z,1.29
2019-01-03T00:58:38.236Z,1.28
2019-01-03T00:58:38.835Z,1.21
2019-01-03T00:58:39.436Z,1.29
2019-01-03T00:59:33.941Z,1.32
2019-01-03T00:59:34.512Z,1.29
2019-01-03T00:59:35.115Z,1.40
2019-01-03T00:59:35.712Z,1.33
2019-01-03T00:59:36.310Z,1.34
2019-01-03T00:59:36.911Z,1.32
2019-01-03T00:59:37.512Z,1.39
2019-01-03T00:59:38.111Z,1.29
2019-01-03T01:00:32.614Z,1.43
2019-01-03T01:00:33.189Z,1.43
2019-01-03T01:00:33.794Z,1.39
2019-01-03T01:00:34.390Z,1.42
2019-01-03T01:00:34.988Z,1.43
2019-01-03T01:00:35.587Z,1.39
2019-01-03T01:00:36.187Z,1.44
2019-01-03T01:00:36.787Z,1.47
2019-01-03T01:01:30.267Z,1.60
2019-01-03T01:01:30.841Z,1.61
2019-01-03T01:01:31.441Z,1.54
2019-01-03T01:01:32.042Z,1.62
2019-01-03T01:01:32.640Z,1.58
2019-01-03T01:01:33.240Z,1.62
2019-01-03T01:01:33.853Z,1.61
2019-01-03T01:01:34.440Z,1.61
2019-01-03T01:02:27.920Z,1.54
2019-01-03T01:02:28.492Z,1.64
2019-01-03T01:02:29.093Z,1.62
2019-01-03T01:02:29.691Z,1.64
2019-01-03T01:02:30.295Z,1.61
2019-01-03T01:02:30.892Z,1.60
2019-01-03T01:02:31.491Z,1.62
2019-01-03T01:02:32.090Z,1.52
2019-01-03T01:03:26.594Z,1.69
2019-01-03T01:03:27.167Z,1.71
2019-01-03T01:03:27.766Z,1.69
2019-01-03T01:03:28.367Z,1.68
2019-01-03T01:03:28.967Z,1.65
2019-01-03T01:03:29.567Z,1.72
2019-01-03T01:03:30.166Z,1.78
2019-01-03T01:03:30.767Z,1.75
2019-01-03T01:04:25.280Z,1.76
2019-01-03T01:04:25.842Z,1.87
2019-01-03T01:04:26.444Z,1.85
2019-01-03T01:04:27.043Z,1.76
2019-01-03T01:04:27.648Z,1.83
2019-01-03T01:04:28.243Z,1.78
2019-01-03T01:04:28.843Z,1.82
2019-01-03T01:04:29.443Z,1.79
2019-01-03T01:05:22.922Z,1.90
2019-01-03T01:05:23.495Z,1.89
2019-01-03T01:05:24.097Z,1.91
2019-01-03T01:05:24.694Z,1.94
2019-01-03T01:05:25.296Z,1.93
2019-01-03T01:05:25.895Z,1.89
2019-01-03T01:05:26.496Z,1.93
2019-01-03T01:05:27.095Z,1.87
2019-01-03T01:06:21.600Z,1.87
2019-01-03T01:06:22.171Z,1.89
2019-01-03T01:06:22.772Z,1.98
2019-01-03T01:06:23.371Z,1.98
2019-01-03T01:06:23.970Z,1.98
2019-01-03T01:06:24.569Z,1.98
2019-01-03T01:06:25.169Z,1.91
2019-01-03T01:06:25.770Z,1.97
2019-01-03T01:07:20.272Z,2.01
2019-01-03T01:07:20.848Z,1.94
2019-01-03T01:07:21.447Z,2.04
2019-01-03T01:07:22.046Z,1.99
2019-01-03T01:07:22.647Z,2.02
2019-01-03T01:07:23.247Z,1.98
2019-01-03T01:07:23.845Z,2.04
2019-01-03T01:07:24.445Z,2.04
2019-01-03T01:08:18.948Z,2.02
2019-01-03T01:08:19.524Z,2.02
2019-01-03T01:08:20.121Z,2.06
2019-01-03T01:08:20.726Z,2.08
2019-01-03T01:08:21.320Z,2.08
2019-01-03T01:08:21.923Z,2.16
2019-01-03T01:08:22.522Z,2.12
2019-01-03T01:08:23.121Z,2.06
2019-01-03T01:09:16.612Z,2.08
2019-01-03T01:09:17.175Z,2.04
2019-01-03T01:09:17.775Z,2.06
2019-01-03T01:09:18.374Z,2.04
2019-01-03T01:09:18.974Z,2.09
2019-01-03T01:09:19.574Z,2.10
2019-01-03T01:09:20.175Z,2.09
2019-01-03T01:09:20.773Z,2.16
2019-01-03T01:10:15.276Z,2.15
2019-01-03T01:10:15.851Z,2.19
2019-01-03T01:10:16.449Z,2.19
2019-01-03T01:10:17.049Z,2.13
2019-01-03T01:10:17.649Z,2.13
2019-01-03T01:10:18.250Z,2.16
2019-01-03T01:10:18.849Z,2.13
2019-01-03T01:10:19.450Z,2.19
2019-01-03T01:11:13.952Z,2.20
2019-01-03T01:11:14.525Z,2.17
2019-01-03T01:11:15.124Z,2.22
2019-01-03T01:11:15.725Z,2.26
2019-01-03T01:11:16.324Z,2.20
2019-01-03T01:11:16.925Z,2.20
2019-01-03T01:11:17.524Z,2.20
2019-01-03T01:11:18.124Z,2.17
2019-01-03T01:12:12.627Z,2.16
2019-01-03T01:12:13.202Z,2.34
2019-01-03T01:12:13.800Z,2.33
2019-01-03T01:12:14.404Z,2.34
2019-01-03T01:12:15.000Z,2.33
2019-01-03T01:12:15.600Z,2.22
2019-01-03T01:12:16.201Z,2.19
2019-01-03T01:12:16.805Z,2.26
2019-01-03T01:13:10.280Z,2.27
2019-01-03T01:13:10.852Z,2.33
2019-01-03T01:13:11.454Z,2.26
2019-01-03T01:13:12.054Z,2.34
2019-01-03T01:13:12.653Z,2.34
2019-01-03T01:13:13.253Z,2.30
2019-01-03T01:13:13.851Z,2.22
2019-01-03T01:13:14.453Z,2.34
2019-01-03T01:14:08.956Z,2.41
2019-01-03T01:14:09.530Z,2.41
2019-01-03T01:14:10.129Z,2.40
2019-01-03T01:14:10.728Z,2.37
2019-01-03T01:14:11.328Z,2.34
2019-01-03T01:14:11.928Z,2.34
2019-01-03T01:14:12.528Z,2.37
2019-01-03T01:14:13.128Z,2.30
2019-01-03T01:15:06.608Z,2.33
2019-01-03T01:15:07.181Z,2.37
2019-01-03T01:15:07.781Z,2.38
2019-01-03T01:15:08.381Z,2.40
2019-01-03T01:15:08.980Z,2.41
2019-01-03T01:15:09.579Z,2.41
2019-01-03T01:15:10.179Z,2.37
2019-01-03T01:15:10.779Z,2.37
2019-01-03T01:16:04.262Z,2.44
2019-01-03T01:16:04.833Z,2.46
2019-01-03T01:16:05.433Z,2.52
2019-01-03T01:16:06.033Z,2.45
2019-01-03T01:16:06.632Z,2.40
2019-01-03T01:16:07.232Z,2.35
2019-01-03T01:16:07.836Z,2.41
2019-01-03T01:16:08.432Z,2.51
2019-01-03T01:17:01.912Z,2.41
2019-01-03T01:17:02.484Z,2.33
2019-01-03T01:17:03.087Z,2.41
2019-01-03T01:17:03.684Z,2.41
2019-01-03T01:17:04.283Z,2.40
2019-01-03T01:17:04.884Z,2.55
2019-01-03T01:17:05.484Z,2.45
2019-01-03T01:17:06.083Z,2.46
2019-01-03T01:17:59.562Z,2.56
2019-01-03T01:18:00.137Z,2.37
2019-01-03T01:18:00.737Z,2.49
2019-01-03T01:18:01.340Z,2.40
2019-01-03T01:18:01.938Z,2.51
2019-01-03T01:18:02.535Z,2.45
2019-01-03T01:18:03.137Z,2.41
2019-01-03T01:18:03.735Z,2.38
2019-01-03T01:18:58.238Z,2.52
2019-01-03T01:18:58.813Z,2.49
2019-01-03T01:18:59.414Z,2.48
2019-01-03T01:19:00.012Z,2.46
2019-01-03T01:19:00.611Z,2.49
2019-01-03T01:19:01.211Z,2.45
2019-01-03T01:19:01.810Z,2.41
2019-01-03T01:19:02.411Z,2.46
2019-01-03T01:19:55.892Z,2.59
2019-01-03T01:19:56.462Z,2.59
2019-01-03T01:19:57.064Z,2.55
2019-01-03T01:19:57.662Z,2.56
2019-01-03T01:19:58.263Z,2.53
2019-01-03T01:19:58.863Z,2.61
2019-01-03T01:19:59.463Z,2.59
2019-01-03T01:20:00.131Z,2.61
2019-01-03T01:20:53.542Z,2.55
2019-01-03T01:20:54.120Z,2.56
2019-01-03T01:20:54.715Z,2.55
2019-01-03T01:20:55.315Z,2.53
2019-01-03T01:20:55.915Z,2.61
2019-01-03T01:20:56.516Z,2.55
2019-01-03T01:20:57.115Z,2.55
2019-01-03T01:20:57.713Z,2.64
2019-01-03T01:21:52.217Z,2.61
2019-01-03T01:21:52.790Z,2.67
2019-01-03T01:21:53.390Z,2.67
2019-01-03T01:21:53.994Z,2.69
2019-01-03T01:21:54.590Z,2.64
2019-01-03T01:21:55.190Z,2.59
2019-01-03T01:21:55.791Z,2.64
2019-01-03T01:21:56.388Z,2.61
2019-01-03T01:22:49.870Z,2.67
2019-01-03T01:22:50.444Z,2.70
2019-01-03T01:22:51.042Z,2.66
2019-01-03T01:22:51.665Z,2.61
2019-01-03T01:22:52.242Z,2.61
2019-01-03T01:22:52.844Z,2.67
2019-01-03T01:22:53.443Z,2.71
2019-01-03T01:22:54.041Z,2.69
2019-01-03T01:23:48.543Z,2.74
2019-01-03T01:23:49.120Z,2.69
2019-01-03T01:23:49.718Z,2.69
2019-01-03T01:23:50.317Z,2.71
2019-01-03T01:23:50.917Z,2.67
2019-01-03T01:23:51.517Z,2.71
2019-01-03T01:23:52.116Z,2.71
2019-01-03T01:23:52.718Z,2.71
2019-01-03T01:24:47.223Z,2.71
2019-01-03T01:24:47.793Z,2.71
2019-01-03T01:24:48.392Z,2.74
2019-01-03T01:24:48.993Z,2.71
2019-01-03T01:24:49.591Z,2.74
2019-01-03T01:24:50.191Z,2.73
2019-01-03T01:24:50.794Z,2.69
2019-01-03T01:24:51.398Z,2.76
2019-01-03T01:25:45.895Z,2.71
2019-01-03T01:25:46.470Z,2.74
2019-01-03T01:25:47.072Z,2.77
2019-01-03T01:25:47.668Z,2.81
2019-01-03T01:25:48.275Z,2.74
2019-01-03T01:25:48.869Z,2.74
2019-01-03T01:25:49.469Z,2.73
2019-01-03T01:25:50.069Z,2.70
2019-01-03T01:26:43.548Z,2.82
2019-01-03T01:26:44.121Z,2.84
2019-01-03T01:26:44.721Z,2.81
2019-01-03T01:26:45.322Z,2.81
2019-01-03T01:26:45.923Z,2.82
2019-01-03T01:26:46.522Z,2.84
2019-01-03T01:26:47.122Z,2.85
2019-01-03T01:26:47.721Z,2.82
2019-01-03T01:27:41.200Z,2.84
2019-01-03T01:27:41.775Z,2.87
2019-01-03T01:27:42.375Z,2.87
2019-01-03T01:27:42.973Z,2.82
2019-01-03T01:27:43.573Z,2.84
2019-01-03T01:27:44.174Z,2.91
2019-01-03T01:27:44.773Z,2.79
2019-01-03T01:27:45.372Z,2.94
2019-01-03T01:28:38.852Z,2.84
2019-01-03T01:28:39.426Z,2.79
2019-01-03T01:28:40.025Z,2.81
2019-01-03T01:28:40.625Z,2.81
2019-01-03T01:28:41.227Z,2.82
2019-01-03T01:28:41.825Z,2.88
2019-01-03T01:28:42.424Z,2.77
2019-01-03T01:28:43.024Z,2.76
2019-01-03T01:29:37.525Z,2.88
2019-01-03T01:29:38.102Z,2.97
2019-01-03T01:29:38.703Z,2.81
2019-01-03T01:29:39.302Z,2.84
2019-01-03T01:29:39.902Z,2.87
2019-01-03T01:29:40.500Z,2.82
2019-01-03T01:29:41.099Z,2.87
2019-01-03T01:29:41.699Z,2.82
2019-01-03T01:30:36.202Z,2.85
2019-01-03T01:30:36.776Z,2.97
2019-01-03T01:30:37.376Z,2.87
2019-01-03T01:30:37.975Z,2.94
2019-01-03T01:30:38.575Z,2.89
2019-01-03T01:30:39.181Z,2.85
2019-01-03T01:30:39.774Z,2.94
2019-01-03T01:30:40.375Z,2.97
2019-01-03T01:31:34.877Z,2.94
2019-01-03T01:31:35.456Z,2.95
2019-01-03T01:31:36.053Z,2.84
2019-01-03T01:31:36.652Z,2.92
2019-01-03T01:31:37.252Z,2.88
2019-01-03T01:31:37.850Z,2.97
2019-01-03T01:31:38.451Z,2.98
2019-01-03T01:31:39.051Z,2.92
2019-01-03T01:32:32.532Z,2.91
2019-01-03T01:32:33.104Z,2.94
2019-01-03T01:32:33.706Z,2.88
2019-01-03T01:32:34.303Z,2.91
2019-01-03T01:32:34.904Z,2.94
2019-01-03T01:32:35.503Z,2.94
2019-01-03T01:32:36.103Z,2.97
2019-01-03T01:32:36.703Z,2.89
2019-01-03T01:33:31.205Z,2.95
2019-01-03T01:33:31.779Z,2.98
2019-01-03T01:33:32.378Z,2.98
2019-01-03T01:33:32.979Z,2.95
2019-01-03T01:33:33.579Z,2.97
2019-01-03T01:33:34.178Z,3.00
2019-01-03T01:33:34.779Z,2.95
2019-01-03T01:33:35.377Z,2.95
2019-01-03T01:34:28.862Z,2.97
2019-01-03T01:34:29.434Z,3.02
2019-01-03T01:34:30.032Z,3.03
2019-01-03T01:34:30.632Z,2.97
2019-01-03T01:34:31.231Z,3.00
2019-01-03T01:34:31.832Z,3.09
2019-01-03T01:34:32.430Z,2.95
2019-01-03T01:34:33.032Z,3.00
2019-01-03T01:35:26.511Z,3.02
2019-01-03T01:35:27.085Z,3.03
2019-01-03T01:35:27.683Z,3.02
2019-01-03T01:35:28.282Z,3.06
2019-01-03T01:35:28.882Z,3.02
2019-01-03T01:35:29.483Z,3.05
2019-01-03T01:35:30.082Z,3.02
2019-01-03T01:35:30.683Z,3.07
2019-01-03T01:36:25.184Z,3.07
2019-01-03T01:36:25.758Z,3.15
2019-01-03T01:36:26.358Z,3.05
2019-01-03T01:36:26.958Z,3.12
2019-01-03T01:36:27.558Z,3.02
2019-01-03T01:36:28.157Z,3.09
2019-01-03T01:36:28.758Z,3.12
2019-01-03T01:36:29.356Z,3.12
2019-01-03T01:37:22.842Z,3.12
2019-01-03T01:37:23.412Z,3.07
2019-01-03T01:37:24.012Z,3.12
2019-01-03T01:37:24.611Z,3.06
2019-01-03T01:37:25.210Z,3.05
2019-01-03T01:37:25.811Z,3.10
2019-01-03T01:37:26.410Z,3.15
2019-01-03T01:37:27.009Z,3.12
2019-01-03T01:38:21.512Z,3.05
2019-01-03T01:38:22.089Z,3.10
2019-01-03T01:38:22.686Z,3.10
2019-01-03T01:38:23.291Z,3.10
2019-01-03T01:38:23.886Z,3.09
2019-01-03T01:38:24.485Z,3.09
2019-01-03T01:38:25.085Z,3.07
2019-01-03T01:38:25.684Z,3.07
2019-01-03T01:39:20.192Z,3.09
2019-01-03T01:39:20.762Z,3.13
2019-01-03T01:39:21.361Z,3.09
2019-01-03T01:39:21.961Z,3.07
2019-01-03T01:39:22.561Z,3.15
2019-01-03T01:39:23.160Z,3.13
2019-01-03T01:39:23.759Z,3.07
2019-01-03T01:39:24.361Z,3.12
2019-01-03T01:40:17.841Z,3.10
2019-01-03T01:40:18.413Z,3.15
2019-01-03T01:40:19.014Z,3.15
2019-01-03T01:40:19.614Z,3.15
2019-01-03T01:40:20.216Z,3.09
2019-01-03T01:40:20.813Z,3.15
2019-01-03T01:40:21.413Z,3.15
2019-01-03T01:40:22.013Z,3.12
2019-01-03T01:41:16.516Z,3.13
2019-01-03T01:41:17.090Z,3.12
2019-01-03T01:41:17.690Z,3.12
2019-01-03T01:41:18.291Z,3.12
2019-01-03T01:41:18.889Z,3.20
2019-01-03T01:41:19.488Z,3.13
2019-01-03T01:41:20.086Z,3.15
2019-01-03T01:41:20.687Z,3.16
2019-01-03T01:42:14.168Z,3.20
2019-01-03T01:42:14.743Z,3.12
2019-01-03T01:42:15.341Z,3.20
2019-01-03T01:42:15.941Z,3.12
2019-01-03T01:42:16.541Z,3.13
2019-01-03T01:42:17.140Z,3.13
2019-01-03T01:42:17.740Z,3.16
2019-01-03T01:42:18.340Z,3.13
2019-01-03T01:43:11.820Z,3.18
2019-01-03T01:43:12.393Z,3.21
2019-01-03T01:43:13.037Z,3.16
2019-01-03T01:43:13.593Z,3.21
2019-01-03T01:43:14.192Z,3.20
2019-01-03T01:43:14.792Z,3.20
2019-01-03T01:43:15.393Z,3.20
2019-01-03T01:43:15.993Z,3.16
2019-01-03T01:44:10.495Z,3.20
2019-01-03T01:44:11.068Z,3.16
2019-01-03T01:44:11.669Z,3.13
2019-01-03T01:44:12.267Z,3.15
2019-01-03T01:44:12.867Z,3.16
2019-01-03T01:44:13.467Z,3.13
2019-01-03T01:44:14.067Z,3.15
2019-01-03T01:44:14.668Z,3.18
2019-01-03T01:45:08.145Z,3.16
2019-01-03T01:45:08.720Z,3.16
2019-01-03T01:45:09.318Z,3.13
2019-01-03T01:45:09.919Z,3.18
2019-01-03T01:45:10.520Z,3.16
2019-01-03T01:45:11.119Z,3.10
2019-01-03T01:45:11.719Z,3.18
2019-01-03T01:45:12.322Z,3.15
2019-01-03T01:46:06.822Z,3.15
2019-01-03T01:46:07.396Z,3.15
2019-01-03T01:46:07.995Z,3.18
2019-01-03T01:46:08.595Z,3.13
2019-01-03T01:46:09.193Z,3.15
2019-01-03T01:46:09.797Z,3.16
2019-01-03T01:46:10.394Z,3.20
2019-01-03T01:46:10.994Z,3.18
2019-01-03T01:47:05.496Z,3.15
2019-01-03T01:47:06.070Z,3.15
2019-01-03T01:47:06.670Z,3.16
2019-01-03T01:47:07.270Z,3.18
2019-01-03T01:47:07.870Z,3.16
2019-01-03T01:47:08.470Z,3.16
2019-01-03T01:47:09.069Z,3.18
2019-01-03T01:47:09.672Z,3.03
2019-01-03T01:48:05.712Z,3.15
2019-01-03T01:48:06.283Z,3.18
2019-01-03T01:48:06.882Z,3.20
2019-01-03T01:48:07.482Z,3.21
2019-01-03T01:48:08.082Z,3.18
2019-01-03T01:48:08.680Z,3.21
2019-01-03T01:49:16.776Z,3.16
2019-01-03T01:49:17.351Z,3.23
2019-01-03T01:49:17.951Z,3.21
2019-01-03T01:50:12.993Z,3.15
2019-01-03T01:50:13.567Z,3.18
2019-01-03T01:50:14.168Z,3.28
2019-01-03T01:50:14.767Z,3.18
2019-01-03T01:50:15.366Z,3.25
2019-01-03T01:50:15.967Z,3.30
2019-01-03T01:50:16.566Z,3.28
2019-01-03T01:52:18.875Z,3.27
2019-01-03T01:52:19.446Z,3.24
2019-01-03T01:52:20.049Z,3.25
2019-01-03T01:52:20.647Z,3.30
2019-01-03T01:52:21.246Z,3.25
2019-01-03T01:52:21.845Z,3.30
2019-01-03T01:52:22.445Z,3.36
2019-01-03T01:52:23.044Z,3.25
2019-01-03T01:52:23.645Z,3.24
2019-01-03T01:52:24.246Z,3.27
2019-01-03T01:52:24.844Z,3.25
2019-01-03T01:52:25.445Z,3.30
2019-01-03T01:53:19.469Z,3.28
2019-01-03T01:53:20.039Z,3.28
2019-01-03T01:53:20.639Z,3.28
2019-01-03T01:53:21.242Z,3.28
2019-01-03T01:53:21.839Z,3.25
2019-01-03T01:53:22.438Z,3.25
2019-01-03T01:53:23.038Z,3.28
2019-01-03T01:53:23.638Z,3.25
2019-01-03T01:54:17.118Z,3.27
2019-01-03T01:54:17.693Z,3.28
2019-01-03T01:54:18.291Z,3.25
2019-01-03T01:54:18.891Z,3.30
2019-01-03T01:54:19.489Z,3.30
2019-01-03T01:54:20.090Z,3.31
2019-01-03T01:54:20.692Z,3.27
2019-01-03T01:54:21.290Z,3.30
2019-01-03T01:55:15.790Z,3.23
2019-01-03T01:55:16.366Z,3.31
2019-01-03T01:55:16.966Z,3.27
2019-01-03T01:55:17.567Z,3.23
2019-01-03T01:55:18.165Z,3.28
2019-01-03T01:55:18.766Z,3.28
2019-01-03T01:55:19.365Z,3.25
2019-01-03T01:55:19.964Z,3.30
2019-01-03T01:56:14.469Z,3.25
2019-01-03T01:56:15.041Z,3.23
2019-01-03T01:56:15.641Z,3.30
2019-01-03T01:56:16.241Z,3.28
2019-01-03T01:56:16.841Z,3.31
2019-01-03T01:56:17.494Z,3.23
2019-01-03T01:56:18.041Z,3.34
2019-01-03T01:56:18.640Z,3.33
2019-01-03T01:57:12.129Z,3.27
2019-01-03T01:57:12.696Z,3.31
2019-01-03T01:57:13.295Z,3.28
2019-01-03T01:57:13.895Z,3.33
2019-01-03T01:57:14.493Z,3.30
2019-01-03T01:57:15.094Z,3.30
2019-01-03T01:57:15.693Z,3.33
2019-01-03T01:57:16.292Z,3.39
2019-01-03T01:58:09.772Z,3.28
2019-01-03T01:58:10.347Z,3.30
2019-01-03T01:58:10.945Z,3.27
2019-01-03T01:58:11.547Z,3.30
2019-01-03T01:58:12.146Z,3.25
2019-01-03T01:58:12.746Z,3.20
2019-01-03T01:58:13.343Z,3.25
2019-01-03T01:58:13.945Z,3.27
2019-01-03T01:59:08.447Z,3.28
2019-01-03T01:59:09.021Z,3.30
2019-01-03T01:59:09.620Z,3.33
2019-01-03T01:59:10.221Z,3.33
2019-01-03T01:59:10.821Z,3.27
2019-01-03T01:59:11.421Z,3.28
2019-01-03T01:59:12.019Z,3.31
2019-01-03T01:59:12.619Z,3.34
2019-01-03T02:00:06.103Z,3.30
2019-01-03T02:00:06.674Z,3.33
2019-01-03T02:00:07.275Z,3.33
2019-01-03T02:00:07.874Z,3.36
2019-01-03T02:00:08.472Z,3.36
2019-01-03T02:00:09.074Z,3.33
2019-01-03T02:00:09.673Z,3.31
2019-01-03T02:00:10.274Z,3.33
2019-01-03T02:01:03.754Z,3.33
2019-01-03T02:01:04.325Z,3.36
2019-01-03T02:01:04.924Z,3.34
2019-01-03T02:01:05.524Z,3.31
2019-01-03T02:01:06.125Z,3.27
2019-01-03T02:01:06.724Z,3.36
2019-01-03T02:01:07.324Z,3.36
2019-01-03T02:01:07.923Z,3.31
2019-01-03T02:02:02.426Z,3.33
2019-01-03T02:02:02.999Z,3.33
2019-01-03T02:02:03.600Z,3.39
2019-01-03T02:02:04.203Z,3.30
2019-01-03T02:02:04.799Z,3.34
2019-01-03T02:02:05.401Z,3.28
2019-01-03T02:02:06.000Z,3.34
2019-01-03T02:02:06.599Z,3.39
2019-01-03T02:03:00.081Z,3.25
2019-01-03T02:03:00.654Z,3.23
2019-01-03T02:03:01.253Z,3.36
2019-01-03T02:03:01.855Z,3.31
2019-01-03T02:03:02.452Z,3.24
2019-01-03T02:03:03.052Z,3.30
2019-01-03T02:03:03.653Z,3.28
2019-01-03T02:03:04.251Z,3.31
2019-01-03T02:03:58.759Z,3.28
2019-01-03T02:03:59.328Z,3.28
2019-01-03T02:03:59.926Z,3.33
2019-01-03T02:04:00.528Z,3.30
2019-01-03T02:04:01.127Z,3.25
2019-01-03T02:04:01.727Z,3.27
2019-01-03T02:04:02.325Z,3.25
2019-01-03T02:04:02.926Z,3.27
2019-01-03T02:04:57.431Z,3.21
2019-01-03T02:04:58.011Z,3.25
2019-01-03T02:04:58.604Z,3.30
2019-01-03T02:04:59.212Z,3.27
2019-01-03T02:04:59.802Z,3.30
2019-01-03T02:05:00.403Z,3.21
2019-01-03T02:05:01.002Z,3.23
2019-01-03T02:05:01.604Z,3.21
2019-01-03T02:05:55.083Z,3.21
2019-01-03T02:05:55.658Z,3.24
2019-01-03T02:05:56.256Z,3.27
2019-01-03T02:05:56.856Z,3.21
2019-01-03T02:05:57.456Z,3.15
2019-01-03T02:05:58.055Z,3.21
2019-01-03T02:05:58.656Z,3.23
2019-01-03T02:05:59.255Z,3.18
2019-01-03T02:06:52.733Z,3.15
2019-01-03T02:06:53.311Z,3.18
2019-01-03T02:06:53.908Z,3.18